sensor_id;sensor_type;location;lat;lon;timestamp;temperature;humidity
41756;DHT22;27435;48.480;9.258;2022-09-16T00:00:28;11.50;99.00
41756;DHT22;27435;48.480;9.258;2022-09-16T00:02:54;11.60;99.00
41756;DHT22;27435;48.480;9.258;2022-09-16T00:05:21;11.60;99.00
41756;DHT22;27435;48.480;9.258;2022-09-16T00:07:46;11.60;99.00
41756;DHT22;27435;48.480;9.258;2022-09-16T00:10:12;11.70;99.00
41756;DHT22;27435;48.480;9.258;2022-09-16T00:12:39;11.60;99.00
41756;DHT22;27435;48.480;9.258;2022-09-16T00:15:05;11.60;99.00
41756;DHT22;27435;48.480;9.258;2022-09-16T00:17:31;11.70;99.00
41756;DHT22;27435;48.480;9.258;2022-09-16T00:19:57;11.70;99.00
41756;DHT22;27435;48.480;9.258;2022-09-16T00:22:23;11.60;99.00
41756;DHT22;27435;48.480;9.258;2022-09-16T00:24:50;11.70;99.00
41756;DHT22;27435;48.480;9.258;2022-09-16T00:27:15;11.90;99.00
41756;DHT22;27435;48.480;9.258;2022-09-16T00:29:41;12.00;99.00
41756;DHT22;27435;48.480;9.258;2022-09-16T00:32:06;12.00;99.00
41756;DHT22;27435;48.480;9.258;2022-09-16T00:34:32;12.00;99.00
41756;DHT22;27435;48.480;9.258;2022-09-16T00:36:58;12.00;99.00
41756;DHT22;27435;48.480;9.258;2022-09-16T00:39:23;12.10;99.00
41756;DHT22;27435;48.480;9.258;2022-09-16T00:41:49;12.00;99.00
41756;DHT22;27435;48.480;9.258;2022-09-16T00:44:53;12.00;99.00
41756;DHT22;27435;48.480;9.258;2022-09-16T00:47:34;12.10;99.00
41756;DHT22;27435;48.480;9.258;2022-09-16T00:50:34;12.10;99.00
41756;DHT22;27435;48.480;9.258;2022-09-16T00:53:01;12.30;99.00
41756;DHT22;27435;48.480;9.258;2022-09-16T00:55:30;12.20;99.00
41756;DHT22;27435;48.480;9.258;2022-09-16T00:58:02;12.10;99.00
41756;DHT22;27435;48.480;9.258;2022-09-16T01:00:30;12.00;99.00
41756;DHT22;27435;48.480;9.258;2022-09-16T01:02:57;12.10;99.00
41756;DHT22;27435;48.480;9.258;2022-09-16T01:05:23;12.00;99.00
41756;DHT22;27435;48.480;9.258;2022-09-16T01:07:53;11.90;99.00
41756;DHT22;27435;48.480;9.258;2022-09-16T01:10:25;11.80;99.00
41756;DHT22;27435;48.480;9.258;2022-09-16T01:12:57;11.80;99.00
41756;DHT22;27435;48.480;9.258;2022-09-16T01:15:32;11.70;99.00
41756;DHT22;27435;48.480;9.258;2022-09-16T01:21:10;11.60;99.00
41756;DHT22;27435;48.480;9.258;2022-09-16T01:35:25;11.40;99.00
41756;DHT22;27435;48.480;9.258;2022-09-16T01:38:21;11.40;99.00
41756;DHT22;27435;48.480;9.258;2022-09-16T01:46:06;11.40;99.00
41756;DHT22;27435;48.480;9.258;2022-09-16T01:48:41;11.30;99.00
41756;DHT22;27435;48.480;9.258;2022-09-16T01:51:21;11.20;99.00
41756;DHT22;27435;48.480;9.258;2022-09-16T01:54:12;11.30;99.00
41756;DHT22;27435;48.480;9.258;2022-09-16T01:56:51;11.40;99.00
41756;DHT22;27435;48.480;9.258;2022-09-16T01:59:23;11.50;99.00
41756;DHT22;27435;48.480;9.258;2022-09-16T02:01:58;11.60;99.00
41756;DHT22;27435;48.480;9.258;2022-09-16T02:04:30;11.60;99.00
41756;DHT22;27435;48.480;9.258;2022-09-16T02:07:00;11.70;99.00
41756;DHT22;27435;48.480;9.258;2022-09-16T02:09:33;11.50;99.00
41756;DHT22;27435;48.480;9.258;2022-09-16T02:12:03;11.60;99.00
41756;DHT22;27435;48.480;9.258;2022-09-16T02:14:34;11.70;99.00
41756;DHT22;27435;48.480;9.258;2022-09-16T02:17:06;11.80;99.00
41756;DHT22;27435;48.480;9.258;2022-09-16T02:22:07;11.80;99.00
41756;DHT22;27435;48.480;9.258;2022-09-16T02:24:35;11.90;99.00
41756;DHT22;27435;48.480;9.258;2022-09-16T02:27:06;11.90;99.00
41756;DHT22;27435;48.480;9.258;2022-09-16T02:29:42;11.80;99.00
41756;DHT22;27435;48.480;9.258;2022-09-16T02:32:11;11.70;99.00
41756;DHT22;27435;48.480;9.258;2022-09-16T02:34:43;11.70;99.00
41756;DHT22;27435;48.480;9.258;2022-09-16T02:37:35;11.70;99.00
41756;DHT22;27435;48.480;9.258;2022-09-16T02:40:04;11.60;99.00
41756;DHT22;27435;48.480;9.258;2022-09-16T02:42:32;11.50;99.00
41756;DHT22;27435;48.480;9.258;2022-09-16T02:44:59;11.60;99.00
41756;DHT22;27435;48.480;9.258;2022-09-16T02:47:33;11.70;99.00
41756;DHT22;27435;48.480;9.258;2022-09-16T02:52:54;11.70;99.00
41756;DHT22;27435;48.480;9.258;2022-09-16T02:58:03;11.70;99.00
41756;DHT22;27435;48.480;9.258;2022-09-16T03:00:31;11.70;99.00
41756;DHT22;27435;48.480;9.258;2022-09-16T03:02:57;11.70;99.00
41756;DHT22;27435;48.480;9.258;2022-09-16T03:05:29;11.80;99.00
41756;DHT22;27435;48.480;9.258;2022-09-16T03:07:55;11.70;99.00
41756;DHT22;27435;48.480;9.258;2022-09-16T03:10:27;11.60;99.00
41756;DHT22;27435;48.480;9.258;2022-09-16T03:13:05;11.60;99.00
41756;DHT22;27435;48.480;9.258;2022-09-16T03:16:06;11.80;99.00
41756;DHT22;27435;48.480;9.258;2022-09-16T03:18:55;11.90;99.00
41756;DHT22;27435;48.480;9.258;2022-09-16T03:21:45;12.00;99.00
41756;DHT22;27435;48.480;9.258;2022-09-16T03:29:39;12.00;99.00
41756;DHT22;27435;48.480;9.258;2022-09-16T03:35:01;11.90;99.00
41756;DHT22;27435;48.480;9.258;2022-09-16T03:37:30;11.90;99.00
41756;DHT22;27435;48.480;9.258;2022-09-16T03:40:03;11.90;99.00
41756;DHT22;27435;48.480;9.258;2022-09-16T03:42:30;11.90;99.00
41756;DHT22;27435;48.480;9.258;2022-09-16T03:44:55;11.80;99.00
41756;DHT22;27435;48.480;9.258;2022-09-16T03:47:21;11.80;99.00
41756;DHT22;27435;48.480;9.258;2022-09-16T03:49:47;11.90;99.00
41756;DHT22;27435;48.480;9.258;2022-09-16T03:52:13;11.90;99.00
41756;DHT22;27435;48.480;9.258;2022-09-16T03:54:38;11.90;99.00
41756;DHT22;27435;48.480;9.258;2022-09-16T03:57:05;12.10;99.00
41756;DHT22;27435;48.480;9.258;2022-09-16T03:59:30;12.10;99.00
41756;DHT22;27435;48.480;9.258;2022-09-16T04:01:56;12.20;99.00
41756;DHT22;27435;48.480;9.258;2022-09-16T04:04:22;12.20;99.00
41756;DHT22;27435;48.480;9.258;2022-09-16T04:06:48;12.20;99.00
41756;DHT22;27435;48.480;9.258;2022-09-16T04:09:13;12.30;99.00
41756;DHT22;27435;48.480;9.258;2022-09-16T04:11:40;12.30;99.00
41756;DHT22;27435;48.480;9.258;2022-09-16T04:14:07;12.20;99.00
41756;DHT22;27435;48.480;9.258;2022-09-16T04:16:33;12.30;99.00
41756;DHT22;27435;48.480;9.258;2022-09-16T04:18:59;12.30;99.00
41756;DHT22;27435;48.480;9.258;2022-09-16T04:21:25;12.40;99.00
41756;DHT22;27435;48.480;9.258;2022-09-16T04:23:50;12.40;99.00
41756;DHT22;27435;48.480;9.258;2022-09-16T04:26:16;12.40;99.00
41756;DHT22;27435;48.480;9.258;2022-09-16T04:28:42;12.40;99.00
41756;DHT22;27435;48.480;9.258;2022-09-16T04:31:13;12.50;99.00
41756;DHT22;27435;48.480;9.258;2022-09-16T04:33:39;12.50;99.00
41756;DHT22;27435;48.480;9.258;2022-09-16T04:36:13;12.50;99.00
41756;DHT22;27435;48.480;9.258;2022-09-16T04:38:41;12.50;99.00
41756;DHT22;27435;48.480;9.258;2022-09-16T04:41:28;12.50;99.00
41756;DHT22;27435;48.480;9.258;2022-09-16T04:43:56;12.50;99.00
41756;DHT22;27435;48.480;9.258;2022-09-16T04:46:23;12.40;99.00
41756;DHT22;27435;48.480;9.258;2022-09-16T04:48:50;12.40;99.00
41756;DHT22;27435;48.480;9.258;2022-09-16T04:51:16;12.40;99.00
41756;DHT22;27435;48.480;9.258;2022-09-16T04:53:42;12.50;99.00
41756;DHT22;27435;48.480;9.258;2022-09-16T04:58:44;12.50;99.00
41756;DHT22;27435;48.480;9.258;2022-09-16T05:01:18;12.60;99.00
41756;DHT22;27435;48.480;9.258;2022-09-16T05:03:46;12.80;99.00
41756;DHT22;27435;48.480;9.258;2022-09-16T05:06:15;12.90;99.00
41756;DHT22;27435;48.480;9.258;2022-09-16T05:08:40;13.00;99.00
41756;DHT22;27435;48.480;9.258;2022-09-16T05:11:18;13.00;99.00
41756;DHT22;27435;48.480;9.258;2022-09-16T05:13:44;13.00;99.00
41756;DHT22;27435;48.480;9.258;2022-09-16T05:16:12;13.00;99.00
41756;DHT22;27435;48.480;9.258;2022-09-16T05:18:40;12.90;99.00
41756;DHT22;27435;48.480;9.258;2022-09-16T05:21:08;12.90;99.00
41756;DHT22;27435;48.480;9.258;2022-09-16T05:23:34;13.00;99.00
41756;DHT22;27435;48.480;9.258;2022-09-16T05:26:04;13.10;99.00
41756;DHT22;27435;48.480;9.258;2022-09-16T05:28:30;12.90;99.00
41756;DHT22;27435;48.480;9.258;2022-09-16T05:31:27;13.00;99.00
41756;DHT22;27435;48.480;9.258;2022-09-16T05:34:06;13.10;99.00
41756;DHT22;27435;48.480;9.258;2022-09-16T05:36:35;13.10;99.00
41756;DHT22;27435;48.480;9.258;2022-09-16T05:39:02;13.10;99.00
41756;DHT22;27435;48.480;9.258;2022-09-16T05:41:28;13.00;99.00
41756;DHT22;27435;48.480;9.258;2022-09-16T05:43:56;13.00;99.00
41756;DHT22;27435;48.480;9.258;2022-09-16T05:46:23;13.20;99.00
41756;DHT22;27435;48.480;9.258;2022-09-16T05:48:49;13.00;99.00
41756;DHT22;27435;48.480;9.258;2022-09-16T05:51:16;12.90;99.00
41756;DHT22;27435;48.480;9.258;2022-09-16T05:53:42;12.90;99.00
41756;DHT22;27435;48.480;9.258;2022-09-16T05:56:14;13.00;99.00
41756;DHT22;27435;48.480;9.258;2022-09-16T05:58:40;13.00;99.00
41756;DHT22;27435;48.480;9.258;2022-09-16T06:01:17;13.00;99.00
41756;DHT22;27435;48.480;9.258;2022-09-16T06:03:44;13.10;99.00
41756;DHT22;27435;48.480;9.258;2022-09-16T06:08:44;13.00;99.00
41756;DHT22;27435;48.480;9.258;2022-09-16T06:11:10;13.00;99.00
41756;DHT22;27435;48.480;9.258;2022-09-16T06:13:37;13.20;99.00
41756;DHT22;27435;48.480;9.258;2022-09-16T06:16:03;13.30;99.00
41756;DHT22;27435;48.480;9.258;2022-09-16T06:18:30;13.20;99.00
41756;DHT22;27435;48.480;9.258;2022-09-16T06:20:56;13.10;99.00
41756;DHT22;27435;48.480;9.258;2022-09-16T06:23:23;13.00;99.00
41756;DHT22;27435;48.480;9.258;2022-09-16T06:26:01;12.80;99.00
41756;DHT22;27435;48.480;9.258;2022-09-16T06:28:27;12.80;99.00
41756;DHT22;27435;48.480;9.258;2022-09-16T06:31:07;12.70;99.00
41756;DHT22;27435;48.480;9.258;2022-09-16T06:33:35;12.50;99.00
41756;DHT22;27435;48.480;9.258;2022-09-16T06:38:33;12.20;99.00
41756;DHT22;27435;48.480;9.258;2022-09-16T06:41:01;12.00;99.00
41756;DHT22;27435;48.480;9.258;2022-09-16T06:43:27;12.00;99.00
41756;DHT22;27435;48.480;9.258;2022-09-16T06:45:58;12.00;99.00
41756;DHT22;27435;48.480;9.258;2022-09-16T06:48:24;12.00;99.00
41756;DHT22;27435;48.480;9.258;2022-09-16T06:50:59;11.90;99.00
41756;DHT22;27435;48.480;9.258;2022-09-16T06:53:25;11.90;99.00
41756;DHT22;27435;48.480;9.258;2022-09-16T06:55:51;11.80;99.00
41756;DHT22;27435;48.480;9.258;2022-09-16T06:58:17;11.80;99.00
41756;DHT22;27435;48.480;9.258;2022-09-16T07:00:42;11.80;99.00
41756;DHT22;27435;48.480;9.258;2022-09-16T07:03:08;11.80;99.00
41756;DHT22;27435;48.480;9.258;2022-09-16T07:05:33;11.70;99.00
41756;DHT22;27435;48.480;9.258;2022-09-16T07:07:59;11.60;99.00
41756;DHT22;27435;48.480;9.258;2022-09-16T07:10:25;11.60;99.00
41756;DHT22;27435;48.480;9.258;2022-09-16T07:12:51;11.50;99.00
41756;DHT22;27435;48.480;9.258;2022-09-16T07:15:16;11.50;99.00
41756;DHT22;27435;48.480;9.258;2022-09-16T07:17:42;11.60;99.00
41756;DHT22;27435;48.480;9.258;2022-09-16T07:20:08;11.60;99.00
41756;DHT22;27435;48.480;9.258;2022-09-16T07:22:34;11.50;99.00
41756;DHT22;27435;48.480;9.258;2022-09-16T07:24:59;11.40;99.00
41756;DHT22;27435;48.480;9.258;2022-09-16T07:27:25;11.30;99.00
41756;DHT22;27435;48.480;9.258;2022-09-16T07:29:50;11.30;99.00
41756;DHT22;27435;48.480;9.258;2022-09-16T07:32:18;11.30;99.00
41756;DHT22;27435;48.480;9.258;2022-09-16T07:34:43;11.30;99.00
41756;DHT22;27435;48.480;9.258;2022-09-16T07:37:09;11.20;99.00
41756;DHT22;27435;48.480;9.258;2022-09-16T07:39:35;11.20;99.00
41756;DHT22;27435;48.480;9.258;2022-09-16T07:42:00;11.20;99.00
41756;DHT22;27435;48.480;9.258;2022-09-16T07:44:28;11.10;99.00
41756;DHT22;27435;48.480;9.258;2022-09-16T07:46:54;11.10;99.00
41756;DHT22;27435;48.480;9.258;2022-09-16T07:49:19;11.00;99.00
41756;DHT22;27435;48.480;9.258;2022-09-16T07:51:45;11.00;99.00
41756;DHT22;27435;48.480;9.258;2022-09-16T07:54:13;11.10;99.00
41756;DHT22;27435;48.480;9.258;2022-09-16T07:56:40;11.10;99.00
41756;DHT22;27435;48.480;9.258;2022-09-16T07:59:10;11.10;99.00
41756;DHT22;27435;48.480;9.258;2022-09-16T08:01:36;11.10;99.00
41756;DHT22;27435;48.480;9.258;2022-09-16T08:04:02;11.10;99.00
41756;DHT22;27435;48.480;9.258;2022-09-16T08:06:30;11.20;99.00
41756;DHT22;27435;48.480;9.258;2022-09-16T08:08:59;11.10;99.00
41756;DHT22;27435;48.480;9.258;2022-09-16T08:11:26;11.20;99.00
41756;DHT22;27435;48.480;9.258;2022-09-16T08:13:52;11.10;99.00
41756;DHT22;27435;48.480;9.258;2022-09-16T08:16:21;11.00;99.00
41756;DHT22;27435;48.480;9.258;2022-09-16T08:18:50;11.20;99.00
41756;DHT22;27435;48.480;9.258;2022-09-16T08:21:21;11.20;99.00
41756;DHT22;27435;48.480;9.258;2022-09-16T08:23:47;11.20;99.00
41756;DHT22;27435;48.480;9.258;2022-09-16T08:26:14;11.00;99.00
41756;DHT22;27435;48.480;9.258;2022-09-16T08:28:42;10.90;99.00
41756;DHT22;27435;48.480;9.258;2022-09-16T08:31:09;10.90;99.00
41756;DHT22;27435;48.480;9.258;2022-09-16T08:33:37;10.90;99.00
41756;DHT22;27435;48.480;9.258;2022-09-16T08:36:19;10.90;99.00
41756;DHT22;27435;48.480;9.258;2022-09-16T08:38:46;11.00;99.00
41756;DHT22;27435;48.480;9.258;2022-09-16T08:47:01;11.10;99.00
41756;DHT22;27435;48.480;9.258;2022-09-16T08:52:03;11.50;99.00
41756;DHT22;27435;48.480;9.258;2022-09-16T08:54:45;11.50;99.00
41756;DHT22;27435;48.480;9.258;2022-09-16T08:57:19;11.40;99.00
41756;DHT22;27435;48.480;9.258;2022-09-16T08:59:51;11.40;99.00
41756;DHT22;27435;48.480;9.258;2022-09-16T09:02:47;11.30;99.00
41756;DHT22;27435;48.480;9.258;2022-09-16T09:10:52;11.30;99.00
41756;DHT22;27435;48.480;9.258;2022-09-16T09:13:43;11.30;99.00
41756;DHT22;27435;48.480;9.258;2022-09-16T09:30:24;12.10;99.00
41756;DHT22;27435;48.480;9.258;2022-09-16T09:36:22;12.70;99.00
41756;DHT22;27435;48.480;9.258;2022-09-16T09:41:40;12.70;99.00
41756;DHT22;27435;48.480;9.258;2022-09-16T09:46:56;12.40;99.00
41756;DHT22;27435;48.480;9.258;2022-09-16T09:54:49;12.10;99.00
41756;DHT22;27435;48.480;9.258;2022-09-16T10:02:50;12.20;99.00
41756;DHT22;27435;48.480;9.258;2022-09-16T10:07:44;12.20;99.00
41756;DHT22;27435;48.480;9.258;2022-09-16T10:10:15;12.20;99.00
41756;DHT22;27435;48.480;9.258;2022-09-16T10:12:41;12.20;99.00
41756;DHT22;27435;48.480;9.258;2022-09-16T10:15:22;12.30;99.00
41756;DHT22;27435;48.480;9.258;2022-09-16T10:17:52;12.30;99.00
41756;DHT22;27435;48.480;9.258;2022-09-16T10:20:30;12.40;99.00
41756;DHT22;27435;48.480;9.258;2022-09-16T10:23:14;12.50;99.00
41756;DHT22;27435;48.480;9.258;2022-09-16T10:25:40;13.00;99.00
41756;DHT22;27435;48.480;9.258;2022-09-16T10:28:22;13.20;99.00
41756;DHT22;27435;48.480;9.258;2022-09-16T10:30:51;13.20;99.00
41756;DHT22;27435;48.480;9.258;2022-09-16T10:33:22;13.60;99.00
41756;DHT22;27435;48.480;9.258;2022-09-16T10:35:55;13.70;99.00
41756;DHT22;27435;48.480;9.258;2022-09-16T10:38:24;13.80;99.00
41756;DHT22;27435;48.480;9.258;2022-09-16T10:41:05;13.70;99.00
41756;DHT22;27435;48.480;9.258;2022-09-16T10:43:31;13.90;99.00
41756;DHT22;27435;48.480;9.258;2022-09-16T10:45:57;14.20;99.00
41756;DHT22;27435;48.480;9.258;2022-09-16T10:48:28;14.50;99.00
41756;DHT22;27435;48.480;9.258;2022-09-16T10:50:59;14.50;99.00
41756;DHT22;27435;48.480;9.258;2022-09-16T10:53:35;14.70;99.00
41756;DHT22;27435;48.480;9.258;2022-09-16T10:56:04;14.60;99.00
41756;DHT22;27435;48.480;9.258;2022-09-16T10:58:30;14.00;99.00
41756;DHT22;27435;48.480;9.258;2022-09-16T11:01:03;13.60;99.00
41756;DHT22;27435;48.480;9.258;2022-09-16T11:09:04;13.40;99.00
41756;DHT22;27435;48.480;9.258;2022-09-16T11:12:06;13.60;99.00
41756;DHT22;27435;48.480;9.258;2022-09-16T11:14:56;13.70;99.00
41756;DHT22;27435;48.480;9.258;2022-09-16T11:20:30;13.70;99.00
41756;DHT22;27435;48.480;9.258;2022-09-16T11:23:07;13.50;99.00
41756;DHT22;27435;48.480;9.258;2022-09-16T11:25:48;13.70;99.00
41756;DHT22;27435;48.480;9.258;2022-09-16T11:36:49;13.40;99.00
41756;DHT22;27435;48.480;9.258;2022-09-16T11:48:22;13.80;99.00
41756;DHT22;27435;48.480;9.258;2022-09-16T11:54:00;14.10;99.00
41756;DHT22;27435;48.480;9.258;2022-09-16T12:02:15;14.10;99.00
41756;DHT22;27435;48.480;9.258;2022-09-16T12:04:55;14.30;99.00
41756;DHT22;27435;48.480;9.258;2022-09-16T12:07:45;14.20;99.00
41756;DHT22;27435;48.480;9.258;2022-09-16T12:10:26;14.20;99.00
41756;DHT22;27435;48.480;9.258;2022-09-16T12:13:07;14.30;99.00
41756;DHT22;27435;48.480;9.258;2022-09-16T12:15:51;14.40;99.00
41756;DHT22;27435;48.480;9.258;2022-09-16T12:18:34;14.10;99.00
41756;DHT22;27435;48.480;9.258;2022-09-16T12:21:07;14.20;99.00
41756;DHT22;27435;48.480;9.258;2022-09-16T12:23:38;14.10;99.00
41756;DHT22;27435;48.480;9.258;2022-09-16T12:29:18;14.70;99.00
41756;DHT22;27435;48.480;9.258;2022-09-16T12:32:21;15.10;99.00
41756;DHT22;27435;48.480;9.258;2022-09-16T12:35:01;15.10;99.00
41756;DHT22;27435;48.480;9.258;2022-09-16T12:37:53;14.90;99.00
41756;DHT22;27435;48.480;9.258;2022-09-16T12:52:24;14.80;99.00
41756;DHT22;27435;48.480;9.258;2022-09-16T12:57:33;15.20;99.00
41756;DHT22;27435;48.480;9.258;2022-09-16T13:00:11;15.10;98.30
41756;DHT22;27435;48.480;9.258;2022-09-16T13:02:54;14.90;99.00
41756;DHT22;27435;48.480;9.258;2022-09-16T13:05:30;14.60;99.00
41756;DHT22;27435;48.480;9.258;2022-09-16T13:08:02;14.50;99.00
41756;DHT22;27435;48.480;9.258;2022-09-16T13:10:35;14.30;99.00
41756;DHT22;27435;48.480;9.258;2022-09-16T13:13:02;14.20;99.00
41756;DHT22;27435;48.480;9.258;2022-09-16T13:15:34;13.90;99.00
41756;DHT22;27435;48.480;9.258;2022-09-16T13:21:05;13.80;99.00
41756;DHT22;27435;48.480;9.258;2022-09-16T13:23:40;13.90;99.00
41756;DHT22;27435;48.480;9.258;2022-09-16T13:26:08;14.00;99.00
41756;DHT22;27435;48.480;9.258;2022-09-16T13:28:40;14.30;99.00
41756;DHT22;27435;48.480;9.258;2022-09-16T13:34:02;15.10;99.00
41756;DHT22;27435;48.480;9.258;2022-09-16T13:36:31;15.30;99.00
41756;DHT22;27435;48.480;9.258;2022-09-16T13:39:03;15.90;96.70
41756;DHT22;27435;48.480;9.258;2022-09-16T13:41:36;15.90;95.30
41756;DHT22;27435;48.480;9.258;2022-09-16T13:44:37;15.80;93.90
41756;DHT22;27435;48.480;9.258;2022-09-16T13:52:29;15.20;90.70
41756;DHT22;27435;48.480;9.258;2022-09-16T13:54:57;15.20;90.70
41756;DHT22;27435;48.480;9.258;2022-09-16T13:57:31;15.60;91.40
41756;DHT22;27435;48.480;9.258;2022-09-16T14:00:19;15.80;91.00
41756;DHT22;27435;48.480;9.258;2022-09-16T14:13:48;15.40;80.30
41756;DHT22;27435;48.480;9.258;2022-09-16T14:16:21;15.30;80.60
41756;DHT22;27435;48.480;9.258;2022-09-16T14:22:12;15.10;80.90
41756;DHT22;27435;48.480;9.258;2022-09-16T14:24:41;15.30;83.40
41756;DHT22;27435;48.480;9.258;2022-09-16T14:32:22;15.30;85.50
41756;DHT22;27435;48.480;9.258;2022-09-16T14:34:48;15.30;87.50
41756;DHT22;27435;48.480;9.258;2022-09-16T14:37:17;15.10;88.90
41756;DHT22;27435;48.480;9.258;2022-09-16T14:39:45;15.10;88.60
41756;DHT22;27435;48.480;9.258;2022-09-16T14:42:16;15.00;87.50
41756;DHT22;27435;48.480;9.258;2022-09-16T14:44:49;15.00;86.20
41756;DHT22;27435;48.480;9.258;2022-09-16T14:47:32;15.20;86.70
41756;DHT22;27435;48.480;9.258;2022-09-16T14:50:26;15.30;86.60
41756;DHT22;27435;48.480;9.258;2022-09-16T14:55:22;15.90;84.30
41756;DHT22;27435;48.480;9.258;2022-09-16T14:57:48;15.70;83.10
41756;DHT22;27435;48.480;9.258;2022-09-16T15:00:16;15.70;85.60
41756;DHT22;27435;48.480;9.258;2022-09-16T15:02:57;16.00;85.10
41756;DHT22;27435;48.480;9.258;2022-09-16T15:05:35;16.30;86.40
41756;DHT22;27435;48.480;9.258;2022-09-16T15:10:39;16.80;83.20
41756;DHT22;27435;48.480;9.258;2022-09-16T15:13:10;17.30;81.50
41756;DHT22;27435;48.480;9.258;2022-09-16T15:15:37;17.70;79.60
41756;DHT22;27435;48.480;9.258;2022-09-16T15:18:34;18.50;76.40
41756;DHT22;27435;48.480;9.258;2022-09-16T15:23:30;18.00;76.20
41756;DHT22;27435;48.480;9.258;2022-09-16T15:26:02;17.70;78.30
41756;DHT22;27435;48.480;9.258;2022-09-16T15:28:30;17.80;75.20
41756;DHT22;27435;48.480;9.258;2022-09-16T15:30:56;16.90;79.90
41756;DHT22;27435;48.480;9.258;2022-09-16T15:33:26;16.50;82.50
41756;DHT22;27435;48.480;9.258;2022-09-16T15:35:56;16.00;83.50
41756;DHT22;27435;48.480;9.258;2022-09-16T15:38:22;15.70;86.20
41756;DHT22;27435;48.480;9.258;2022-09-16T15:43:28;15.90;84.10
41756;DHT22;27435;48.480;9.258;2022-09-16T15:46:00;15.80;85.50
41756;DHT22;27435;48.480;9.258;2022-09-16T15:48:30;15.90;84.20
41756;DHT22;27435;48.480;9.258;2022-09-16T15:51:09;16.20;82.60
41756;DHT22;27435;48.480;9.258;2022-09-16T15:53:45;17.00;80.10
41756;DHT22;27435;48.480;9.258;2022-09-16T15:56:31;17.80;78.60
41756;DHT22;27435;48.480;9.258;2022-09-16T15:59:26;17.90;77.80
41756;DHT22;27435;48.480;9.258;2022-09-16T16:01:52;17.50;80.10
41756;DHT22;27435;48.480;9.258;2022-09-16T16:04:25;17.30;79.90
41756;DHT22;27435;48.480;9.258;2022-09-16T16:07:00;16.90;80.60
41756;DHT22;27435;48.480;9.258;2022-09-16T16:12:13;16.10;83.80
41756;DHT22;27435;48.480;9.258;2022-09-16T16:14:39;15.90;85.10
41756;DHT22;27435;48.480;9.258;2022-09-16T16:17:10;15.60;86.70
41756;DHT22;27435;48.480;9.258;2022-09-16T16:19:35;15.50;87.50
41756;DHT22;27435;48.480;9.258;2022-09-16T16:22:04;15.40;86.90
41756;DHT22;27435;48.480;9.258;2022-09-16T16:24:29;15.20;87.40
41756;DHT22;27435;48.480;9.258;2022-09-16T16:26:56;15.10;88.90
41756;DHT22;27435;48.480;9.258;2022-09-16T16:29:21;15.00;87.90
41756;DHT22;27435;48.480;9.258;2022-09-16T16:32:02;14.90;89.20
41756;DHT22;27435;48.480;9.258;2022-09-16T16:34:31;14.50;88.90
41756;DHT22;27435;48.480;9.258;2022-09-16T16:36:56;14.50;89.30
41756;DHT22;27435;48.480;9.258;2022-09-16T16:39:22;15.20;85.70
41756;DHT22;27435;48.480;9.258;2022-09-16T16:41:49;14.90;85.30
41756;DHT22;27435;48.480;9.258;2022-09-16T16:44:15;14.60;86.20
41756;DHT22;27435;48.480;9.258;2022-09-16T16:46:41;14.60;87.70
41756;DHT22;27435;48.480;9.258;2022-09-16T16:49:06;14.60;87.50
41756;DHT22;27435;48.480;9.258;2022-09-16T16:51:32;14.50;87.30
41756;DHT22;27435;48.480;9.258;2022-09-16T16:53:58;14.50;86.00
41756;DHT22;27435;48.480;9.258;2022-09-16T16:56:24;14.30;87.20
41756;DHT22;27435;48.480;9.258;2022-09-16T16:58:49;14.20;88.40
41756;DHT22;27435;48.480;9.258;2022-09-16T17:01:17;14.00;88.60
41756;DHT22;27435;48.480;9.258;2022-09-16T17:03:44;13.90;89.30
41756;DHT22;27435;48.480;9.258;2022-09-16T17:06:11;13.90;89.80
41756;DHT22;27435;48.480;9.258;2022-09-16T17:08:36;13.90;89.30
41756;DHT22;27435;48.480;9.258;2022-09-16T17:11:10;13.80;90.60
41756;DHT22;27435;48.480;9.258;2022-09-16T17:13:45;13.60;91.50
41756;DHT22;27435;48.480;9.258;2022-09-16T17:16:12;13.60;92.10
41756;DHT22;27435;48.480;9.258;2022-09-16T17:18:39;13.50;92.40
41756;DHT22;27435;48.480;9.258;2022-09-16T17:21:11;13.60;92.40
41756;DHT22;27435;48.480;9.258;2022-09-16T17:23:37;13.50;92.30
41756;DHT22;27435;48.480;9.258;2022-09-16T17:26:04;13.20;93.90
41756;DHT22;27435;48.480;9.258;2022-09-16T17:28:30;13.10;94.40
41756;DHT22;27435;48.480;9.258;2022-09-16T17:30:56;13.00;94.90
41756;DHT22;27435;48.480;9.258;2022-09-16T17:33:21;12.90;95.10
41756;DHT22;27435;48.480;9.258;2022-09-16T17:36:01;12.80;95.80
41756;DHT22;27435;48.480;9.258;2022-09-16T17:38:27;12.90;95.80
41756;DHT22;27435;48.480;9.258;2022-09-16T17:41:06;12.70;96.50
41756;DHT22;27435;48.480;9.258;2022-09-16T17:43:32;12.50;96.80
41756;DHT22;27435;48.480;9.258;2022-09-16T17:46:03;12.40;97.40
41756;DHT22;27435;48.480;9.258;2022-09-16T17:48:29;12.20;98.40
41756;DHT22;27435;48.480;9.258;2022-09-16T17:50:55;12.10;99.00
41756;DHT22;27435;48.480;9.258;2022-09-16T17:53:21;12.10;98.70
41756;DHT22;27435;48.480;9.258;2022-09-16T17:55:47;12.10;98.40
41756;DHT22;27435;48.480;9.258;2022-09-16T17:58:13;11.90;99.00
41756;DHT22;27435;48.480;9.258;2022-09-16T18:04:02;12.10;99.00
41756;DHT22;27435;48.480;9.258;2022-09-16T18:06:33;12.00;99.00
41756;DHT22;27435;48.480;9.258;2022-09-16T18:09:03;11.90;99.00
41756;DHT22;27435;48.480;9.258;2022-09-16T18:11:29;11.90;99.00
41756;DHT22;27435;48.480;9.258;2022-09-16T18:14:13;12.00;99.00
41756;DHT22;27435;48.480;9.258;2022-09-16T18:16:40;12.10;99.00
41756;DHT22;27435;48.480;9.258;2022-09-16T18:19:06;12.30;99.00
41756;DHT22;27435;48.480;9.258;2022-09-16T18:21:32;12.30;99.00
41756;DHT22;27435;48.480;9.258;2022-09-16T18:24:00;12.40;99.00
41756;DHT22;27435;48.480;9.258;2022-09-16T18:26:27;12.40;99.00
41756;DHT22;27435;48.480;9.258;2022-09-16T18:28:54;12.10;99.00
41756;DHT22;27435;48.480;9.258;2022-09-16T18:31:22;12.30;99.00
41756;DHT22;27435;48.480;9.258;2022-09-16T18:33:52;12.20;99.00
41756;DHT22;27435;48.480;9.258;2022-09-16T18:36:22;12.30;99.00
41756;DHT22;27435;48.480;9.258;2022-09-16T18:38:54;12.20;99.00
41756;DHT22;27435;48.480;9.258;2022-09-16T18:41:24;12.30;99.00
41756;DHT22;27435;48.480;9.258;2022-09-16T18:43:55;12.50;99.00
41756;DHT22;27435;48.480;9.258;2022-09-16T18:46:23;12.30;99.00
41756;DHT22;27435;48.480;9.258;2022-09-16T18:48:50;12.40;99.00
41756;DHT22;27435;48.480;9.258;2022-09-16T18:51:31;12.30;99.00
41756;DHT22;27435;48.480;9.258;2022-09-16T18:54:02;12.40;99.00
41756;DHT22;27435;48.480;9.258;2022-09-16T18:56:30;12.30;99.00
41756;DHT22;27435;48.480;9.258;2022-09-16T18:59:02;12.30;99.00
41756;DHT22;27435;48.480;9.258;2022-09-16T19:01:33;12.50;99.00
41756;DHT22;27435;48.480;9.258;2022-09-16T19:04:01;12.60;99.00
41756;DHT22;27435;48.480;9.258;2022-09-16T19:06:30;12.60;99.00